sensor_id;sensor_type;location;lat;lon;timestamp;P1;durP1;ratioP1;P2;durP2;ratioP2
13704;SDS011;6924;52.122;9.952;2022-09-25T00:00:39;13.53;;;12.33;;
13704;SDS011;6924;52.122;9.952;2022-09-25T00:03:06;12.60;;;11.47;;
13704;SDS011;6924;52.122;9.952;2022-09-25T00:05:35;11.60;;;10.53;;
13704;SDS011;6924;52.122;9.952;2022-09-25T00:08:01;12.10;;;11.03;;
13704;SDS011;6924;52.122;9.952;2022-09-25T00:10:28;12.40;;;11.40;;
13704;SDS011;6924;52.122;9.952;2022-09-25T00:12:54;12.33;;;11.13;;
13704;SDS011;6924;52.122;9.952;2022-09-25T00:15:24;13.37;;;12.27;;
13704;SDS011;6924;52.122;9.952;2022-09-25T00:17:51;12.53;;;11.27;;
13704;SDS011;6924;52.122;9.952;2022-09-25T00:20:18;13.33;;;12.13;;
13704;SDS011;6924;52.122;9.952;2022-09-25T00:22:46;12.30;;;11.27;;
13704;SDS011;6924;52.122;9.952;2022-09-25T00:25:13;11.87;;;10.87;;
13704;SDS011;6924;52.122;9.952;2022-09-25T00:27:40;12.67;;;11.60;;
13704;SDS011;6924;52.122;9.952;2022-09-25T00:30:07;13.30;;;12.20;;
13704;SDS011;6924;52.122;9.952;2022-09-25T00:32:35;12.57;;;11.57;;
13704;SDS011;6924;52.122;9.952;2022-09-25T00:35:02;12.83;;;11.70;;
13704;SDS011;6924;52.122;9.952;2022-09-25T00:37:29;10.83;;;9.93;;
13704;SDS011;6924;52.122;9.952;2022-09-25T00:39:59;12.80;;;11.03;;
13704;SDS011;6924;52.122;9.952;2022-09-25T00:42:26;11.60;;;10.60;;
13704;SDS011;6924;52.122;9.952;2022-09-25T00:44:54;10.50;;;9.70;;
13704;SDS011;6924;52.122;9.952;2022-09-25T00:47:23;10.60;;;9.70;;
13704;SDS011;6924;52.122;9.952;2022-09-25T00:49:55;11.80;;;10.80;;
13704;SDS011;6924;52.122;9.952;2022-09-25T00:52:25;11.90;;;10.80;;
13704;SDS011;6924;52.122;9.952;2022-09-25T00:54:54;12.80;;;11.70;;
13704;SDS011;6924;52.122;9.952;2022-09-25T00:57:26;12.37;;;11.37;;
13704;SDS011;6924;52.122;9.952;2022-09-25T00:59:56;12.17;;;11.07;;
13704;SDS011;6924;52.122;9.952;2022-09-25T01:02:27;11.70;;;10.70;;
13704;SDS011;6924;52.122;9.952;2022-09-25T01:04:55;12.17;;;11.17;;
13704;SDS011;6924;52.122;9.952;2022-09-25T01:07:25;11.33;;;10.43;;
13704;SDS011;6924;52.122;9.952;2022-09-25T01:09:51;11.40;;;10.47;;
13704;SDS011;6924;52.122;9.952;2022-09-25T01:12:24;12.43;;;11.13;;
13704;SDS011;6924;52.122;9.952;2022-09-25T01:14:51;11.90;;;10.87;;
13704;SDS011;6924;52.122;9.952;2022-09-25T01:17:19;12.43;;;11.33;;
13704;SDS011;6924;52.122;9.952;2022-09-25T01:19:53;11.00;;;10.10;;
13704;SDS011;6924;52.122;9.952;2022-09-25T01:22:35;11.50;;;10.50;;
13704;SDS011;6924;52.122;9.952;2022-09-25T01:25:20;11.30;;;10.40;;
13704;SDS011;6924;52.122;9.952;2022-09-25T01:28:03;12.10;;;11.07;;
13704;SDS011;6924;52.122;9.952;2022-09-25T01:30:47;11.33;;;10.13;;
13704;SDS011;6924;52.122;9.952;2022-09-25T01:33:20;10.67;;;9.73;;
13704;SDS011;6924;52.122;9.952;2022-09-25T01:35:51;10.77;;;9.87;;
13704;SDS011;6924;52.122;9.952;2022-09-25T01:38:25;10.43;;;9.43;;
13704;SDS011;6924;52.122;9.952;2022-09-25T01:40:59;10.37;;;9.47;;
13704;SDS011;6924;52.122;9.952;2022-09-25T01:43:31;9.93;;;9.07;;
13704;SDS011;6924;52.122;9.952;2022-09-25T01:46:03;8.43;;;7.80;;
13704;SDS011;6924;52.122;9.952;2022-09-25T01:48:36;8.30;;;7.60;;
13704;SDS011;6924;52.122;9.952;2022-09-25T01:51:06;7.90;;;7.27;;
13704;SDS011;6924;52.122;9.952;2022-09-25T01:53:40;7.50;;;6.87;;
13704;SDS011;6924;52.122;9.952;2022-09-25T01:56:12;8.57;;;7.87;;
13704;SDS011;6924;52.122;9.952;2022-09-25T01:58:45;7.33;;;6.67;;
13704;SDS011;6924;52.122;9.952;2022-09-25T02:01:17;7.57;;;6.97;;
13704;SDS011;6924;52.122;9.952;2022-09-25T02:03:49;7.93;;;7.07;;
13704;SDS011;6924;52.122;9.952;2022-09-25T02:06:21;7.37;;;6.67;;
13704;SDS011;6924;52.122;9.952;2022-09-25T02:08:50;7.77;;;7.17;;
13704;SDS011;6924;52.122;9.952;2022-09-25T02:11:20;5.73;;;5.23;;
13704;SDS011;6924;52.122;9.952;2022-09-25T02:13:49;6.40;;;5.83;;
13704;SDS011;6924;52.122;9.952;2022-09-25T02:16:22;6.77;;;5.97;;
13704;SDS011;6924;52.122;9.952;2022-09-25T02:18:53;6.97;;;6.37;;
13704;SDS011;6924;52.122;9.952;2022-09-25T02:21:39;7.17;;;6.57;;
13704;SDS011;6924;52.122;9.952;2022-09-25T02:24:13;6.53;;;5.93;;
13704;SDS011;6924;52.122;9.952;2022-09-25T02:26:45;6.63;;;6.03;;
13704;SDS011;6924;52.122;9.952;2022-09-25T02:29:14;7.07;;;6.47;;
13704;SDS011;6924;52.122;9.952;2022-09-25T02:31:43;7.10;;;6.47;;
13704;SDS011;6924;52.122;9.952;2022-09-25T02:34:13;6.43;;;5.83;;
13704;SDS011;6924;52.122;9.952;2022-09-25T02:36:40;7.43;;;6.83;;
13704;SDS011;6924;52.122;9.952;2022-09-25T02:39:08;7.63;;;6.93;;
13704;SDS011;6924;52.122;9.952;2022-09-25T02:41:41;6.53;;;6.03;;
13704;SDS011;6924;52.122;9.952;2022-09-25T02:44:20;7.67;;;6.80;;
13704;SDS011;6924;52.122;9.952;2022-09-25T02:47:00;7.90;;;7.20;;
13704;SDS011;6924;52.122;9.952;2022-09-25T02:49:39;8.07;;;7.07;;
13704;SDS011;6924;52.122;9.952;2022-09-25T02:52:13;7.43;;;6.83;;
13704;SDS011;6924;52.122;9.952;2022-09-25T02:54:46;8.47;;;7.30;;
13704;SDS011;6924;52.122;9.952;2022-09-25T02:57:18;7.87;;;7.03;;
13704;SDS011;6924;52.122;9.952;2022-09-25T02:59:52;7.37;;;6.77;;
13704;SDS011;6924;52.122;9.952;2022-09-25T03:02:24;7.37;;;6.77;;
13704;SDS011;6924;52.122;9.952;2022-09-25T03:04:52;6.83;;;6.23;;
13704;SDS011;6924;52.122;9.952;2022-09-25T03:07:21;7.43;;;6.83;;
13704;SDS011;6924;52.122;9.952;2022-09-25T03:09:48;7.60;;;6.83;;
13704;SDS011;6924;52.122;9.952;2022-09-25T03:12:16;7.27;;;6.57;;
13704;SDS011;6924;52.122;9.952;2022-09-25T03:14:43;6.63;;;6.13;;
13704;SDS011;6924;52.122;9.952;2022-09-25T03:17:09;7.73;;;6.93;;
13704;SDS011;6924;52.122;9.952;2022-09-25T03:19:37;7.67;;;6.97;;
13704;SDS011;6924;52.122;9.952;2022-09-25T03:22:04;7.93;;;7.23;;
13704;SDS011;6924;52.122;9.952;2022-09-25T03:24:30;8.90;;;8.17;;
13704;SDS011;6924;52.122;9.952;2022-09-25T03:26:57;8.83;;;8.13;;
13704;SDS011;6924;52.122;9.952;2022-09-25T03:29:23;9.03;;;8.13;;
13704;SDS011;6924;52.122;9.952;2022-09-25T03:31:50;9.17;;;8.27;;
13704;SDS011;6924;52.122;9.952;2022-09-25T03:34:17;9.70;;;8.90;;
13704;SDS011;6924;52.122;9.952;2022-09-25T03:36:45;9.83;;;8.93;;
13704;SDS011;6924;52.122;9.952;2022-09-25T03:39:13;10.70;;;8.57;;
13704;SDS011;6924;52.122;9.952;2022-09-25T03:41:41;10.53;;;9.53;;
13704;SDS011;6924;52.122;9.952;2022-09-25T03:44:08;9.67;;;8.87;;
13704;SDS011;6924;52.122;9.952;2022-09-25T03:46:35;11.43;;;10.07;;
13704;SDS011;6924;52.122;9.952;2022-09-25T03:49:02;10.10;;;9.20;;
13704;SDS011;6924;52.122;9.952;2022-09-25T03:51:29;11.07;;;9.93;;
13704;SDS011;6924;52.122;9.952;2022-09-25T03:53:58;10.70;;;9.67;;
13704;SDS011;6924;52.122;9.952;2022-09-25T03:56:25;12.20;;;11.20;;
13704;SDS011;6924;52.122;9.952;2022-09-25T03:58:53;11.47;;;10.47;;
13704;SDS011;6924;52.122;9.952;2022-09-25T04:01:21;11.00;;;10.10;;
13704;SDS011;6924;52.122;9.952;2022-09-25T04:03:49;10.00;;;9.13;;
13704;SDS011;6924;52.122;9.952;2022-09-25T04:06:16;10.03;;;9.10;;
13704;SDS011;6924;52.122;9.952;2022-09-25T04:08:46;10.70;;;9.80;;
13704;SDS011;6924;52.122;9.952;2022-09-25T04:11:15;10.90;;;9.90;;
13704;SDS011;6924;52.122;9.952;2022-09-25T04:13:43;11.50;;;10.40;;
13704;SDS011;6924;52.122;9.952;2022-09-25T04:16:10;10.67;;;9.83;;
13704;SDS011;6924;52.122;9.952;2022-09-25T04:18:37;9.40;;;8.50;;
13704;SDS011;6924;52.122;9.952;2022-09-25T04:21:07;12.20;;;10.07;;
13704;SDS011;6924;52.122;9.952;2022-09-25T04:23:35;11.33;;;10.23;;
13704;SDS011;6924;52.122;9.952;2022-09-25T04:26:02;11.13;;;10.20;;
13704;SDS011;6924;52.122;9.952;2022-09-25T04:28:30;10.93;;;10.03;;
13704;SDS011;6924;52.122;9.952;2022-09-25T04:30:58;10.50;;;9.50;;
13704;SDS011;6924;52.122;9.952;2022-09-25T04:33:25;11.40;;;10.30;;
13704;SDS011;6924;52.122;9.952;2022-09-25T04:36:10;11.40;;;10.30;;
13704;SDS011;6924;52.122;9.952;2022-09-25T04:38:36;10.47;;;9.57;;
13704;SDS011;6924;52.122;9.952;2022-09-25T04:41:03;10.43;;;9.63;;
13704;SDS011;6924;52.122;9.952;2022-09-25T04:43:31;11.53;;;10.43;;
13704;SDS011;6924;52.122;9.952;2022-09-25T04:45:59;10.50;;;9.60;;
13704;SDS011;6924;52.122;9.952;2022-09-25T04:48:26;10.90;;;9.93;;
13704;SDS011;6924;52.122;9.952;2022-09-25T04:50:53;11.10;;;9.33;;
13704;SDS011;6924;52.122;9.952;2022-09-25T04:53:19;11.03;;;10.23;;
13704;SDS011;6924;52.122;9.952;2022-09-25T04:55:46;11.13;;;10.07;;
13704;SDS011;6924;52.122;9.952;2022-09-25T04:58:13;11.07;;;9.97;;
13704;SDS011;6924;52.122;9.952;2022-09-25T05:00:41;12.00;;;11.00;;
13704;SDS011;6924;52.122;9.952;2022-09-25T05:03:07;12.10;;;10.87;;
13704;SDS011;6924;52.122;9.952;2022-09-25T05:05:33;10.43;;;9.53;;
13704;SDS011;6924;52.122;9.952;2022-09-25T05:08:00;11.87;;;10.77;;
13704;SDS011;6924;52.122;9.952;2022-09-25T05:10:28;11.97;;;10.67;;
13704;SDS011;6924;52.122;9.952;2022-09-25T05:12:56;11.03;;;9.93;;
13704;SDS011;6924;52.122;9.952;2022-09-25T05:15:25;11.87;;;10.53;;
13704;SDS011;6924;52.122;9.952;2022-09-25T05:17:59;10.67;;;9.67;;
13704;SDS011;6924;52.122;9.952;2022-09-25T05:20:25;11.93;;;10.67;;
13704;SDS011;6924;52.122;9.952;2022-09-25T05:22:53;10.67;;;9.77;;
13704;SDS011;6924;52.122;9.952;2022-09-25T05:25:19;11.90;;;10.80;;
13704;SDS011;6924;52.122;9.952;2022-09-25T05:27:49;11.40;;;10.30;;
13704;SDS011;6924;52.122;9.952;2022-09-25T05:30:15;11.13;;;10.03;;
13704;SDS011;6924;52.122;9.952;2022-09-25T05:32:45;12.77;;;10.67;;
13704;SDS011;6924;52.122;9.952;2022-09-25T05:35:14;11.80;;;10.50;;
13704;SDS011;6924;52.122;9.952;2022-09-25T05:37:41;12.17;;;10.97;;
13704;SDS011;6924;52.122;9.952;2022-09-25T05:40:08;11.87;;;10.70;;
13704;SDS011;6924;52.122;9.952;2022-09-25T05:42:35;12.07;;;11.07;;
13704;SDS011;6924;52.122;9.952;2022-09-25T05:45:01;12.63;;;11.33;;
13704;SDS011;6924;52.122;9.952;2022-09-25T05:47:28;12.43;;;11.33;;
13704;SDS011;6924;52.122;9.952;2022-09-25T05:49:55;13.60;;;12.43;;
13704;SDS011;6924;52.122;9.952;2022-09-25T05:52:22;13.30;;;12.00;;
13704;SDS011;6924;52.122;9.952;2022-09-25T05:54:49;15.00;;;11.47;;
13704;SDS011;6924;52.122;9.952;2022-09-25T05:57:15;12.20;;;11.10;;
13704;SDS011;6924;52.122;9.952;2022-09-25T05:59:42;13.33;;;11.93;;
13704;SDS011;6924;52.122;9.952;2022-09-25T06:02:09;13.07;;;12.07;;
13704;SDS011;6924;52.122;9.952;2022-09-25T06:04:36;16.33;;;11.87;;
13704;SDS011;6924;52.122;9.952;2022-09-25T06:07:02;13.30;;;11.83;;
13704;SDS011;6924;52.122;9.952;2022-09-25T06:09:30;12.00;;;10.90;;
13704;SDS011;6924;52.122;9.952;2022-09-25T06:11:57;12.77;;;11.43;;
13704;SDS011;6924;52.122;9.952;2022-09-25T06:14:23;11.27;;;10.37;;
13704;SDS011;6924;52.122;9.952;2022-09-25T06:16:50;11.63;;;10.53;;
13704;SDS011;6924;52.122;9.952;2022-09-25T06:19:16;14.10;;;12.67;;
13704;SDS011;6924;52.122;9.952;2022-09-25T06:21:42;11.47;;;10.47;;
13704;SDS011;6924;52.122;9.952;2022-09-25T06:24:09;10.33;;;9.40;;
13704;SDS011;6924;52.122;9.952;2022-09-25T06:26:37;11.13;;;10.13;;
13704;SDS011;6924;52.122;9.952;2022-09-25T06:29:03;12.90;;;9.43;;
13704;SDS011;6924;52.122;9.952;2022-09-25T06:31:31;10.00;;;9.00;;
13704;SDS011;6924;52.122;9.952;2022-09-25T06:33:58;9.93;;;8.93;;
13704;SDS011;6924;52.122;9.952;2022-09-25T06:36:24;9.63;;;8.63;;
13704;SDS011;6924;52.122;9.952;2022-09-25T06:38:52;9.87;;;8.50;;
13704;SDS011;6924;52.122;9.952;2022-09-25T06:41:19;8.87;;;7.40;;
13704;SDS011;6924;52.122;9.952;2022-09-25T06:43:48;8.43;;;7.53;;
13704;SDS011;6924;52.122;9.952;2022-09-25T06:46:15;9.60;;;8.40;;
13704;SDS011;6924;52.122;9.952;2022-09-25T06:48:42;7.50;;;6.63;;
13704;SDS011;6924;52.122;9.952;2022-09-25T06:51:08;7.27;;;6.57;;
13704;SDS011;6924;52.122;9.952;2022-09-25T06:53:35;8.57;;;7.00;;
13704;SDS011;6924;52.122;9.952;2022-09-25T06:56:01;10.10;;;6.80;;
13704;SDS011;6924;52.122;9.952;2022-09-25T06:58:28;6.87;;;5.83;;
13704;SDS011;6924;52.122;9.952;2022-09-25T07:00:56;7.00;;;6.40;;
13704;SDS011;6924;52.122;9.952;2022-09-25T07:03:23;6.50;;;5.93;;
13704;SDS011;6924;52.122;9.952;2022-09-25T07:06:08;11.03;;;6.43;;
13704;SDS011;6924;52.122;9.952;2022-09-25T07:08:35;7.57;;;6.87;;
13704;SDS011;6924;52.122;9.952;2022-09-25T07:11:02;9.63;;;5.27;;
13704;SDS011;6924;52.122;9.952;2022-09-25T07:13:29;6.50;;;5.57;;
13704;SDS011;6924;52.122;9.952;2022-09-25T07:15:59;5.70;;;5.20;;
13704;SDS011;6924;52.122;9.952;2022-09-25T07:18:27;6.10;;;5.60;;
13704;SDS011;6924;52.122;9.952;2022-09-25T07:20:58;9.83;;;5.83;;
13704;SDS011;6924;52.122;9.952;2022-09-25T07:23:26;11.30;;;6.43;;
13704;SDS011;6924;52.122;9.952;2022-09-25T07:25:55;5.87;;;5.27;;
13704;SDS011;6924;52.122;9.952;2022-09-25T07:28:22;7.40;;;6.07;;
13704;SDS011;6924;52.122;9.952;2022-09-25T07:30:48;8.03;;;5.03;;
13704;SDS011;6924;52.122;9.952;2022-09-25T07:33:16;6.90;;;5.73;;
13704;SDS011;6924;52.122;9.952;2022-09-25T07:35:43;6.70;;;5.10;;
13704;SDS011;6924;52.122;9.952;2022-09-25T07:38:09;6.03;;;5.47;;
13704;SDS011;6924;52.122;9.952;2022-09-25T07:40:35;8.87;;;5.70;;
13704;SDS011;6924;52.122;9.952;2022-09-25T07:43:02;8.10;;;7.40;;
13704;SDS011;6924;52.122;9.952;2022-09-25T07:45:29;9.17;;;6.10;;
13704;SDS011;6924;52.122;9.952;2022-09-25T07:47:56;6.50;;;5.90;;
13704;SDS011;6924;52.122;9.952;2022-09-25T07:50:24;6.70;;;6.13;;
13704;SDS011;6924;52.122;9.952;2022-09-25T07:52:51;7.00;;;6.27;;
13704;SDS011;6924;52.122;9.952;2022-09-25T07:55:18;6.80;;;6.20;;
13704;SDS011;6924;52.122;9.952;2022-09-25T07:57:45;7.87;;;6.23;;
13704;SDS011;6924;52.122;9.952;2022-09-25T08:00:13;6.80;;;6.20;;
13704;SDS011;6924;52.122;9.952;2022-09-25T08:02:40;7.70;;;6.87;;
13704;SDS011;6924;52.122;9.952;2022-09-25T08:05:06;7.73;;;5.77;;
13704;SDS011;6924;52.122;9.952;2022-09-25T08:07:35;7.00;;;6.37;;
13704;SDS011;6924;52.122;9.952;2022-09-25T08:10:01;6.20;;;5.70;;
13704;SDS011;6924;52.122;9.952;2022-09-25T08:12:28;7.03;;;6.43;;
13704;SDS011;6924;52.122;9.952;2022-09-25T08:14:55;6.50;;;5.97;;
13704;SDS011;6924;52.122;9.952;2022-09-25T08:17:21;6.77;;;5.90;;
13704;SDS011;6924;52.122;9.952;2022-09-25T08:19:48;7.70;;;4.83;;
13704;SDS011;6924;52.122;9.952;2022-09-25T08:22:14;7.97;;;5.80;;
13704;SDS011;6924;52.122;9.952;2022-09-25T08:24:42;6.70;;;5.07;;
13704;SDS011;6924;52.122;9.952;2022-09-25T08:27:08;6.07;;;5.57;;
13704;SDS011;6924;52.122;9.952;2022-09-25T08:29:34;7.67;;;5.17;;
13704;SDS011;6924;52.122;9.952;2022-09-25T08:32:01;5.80;;;5.23;;
13704;SDS011;6924;52.122;9.952;2022-09-25T08:34:27;6.07;;;5.13;;
13704;SDS011;6924;52.122;9.952;2022-09-25T08:36:54;6.23;;;5.23;;
13704;SDS011;6924;52.122;9.952;2022-09-25T08:39:21;5.40;;;4.90;;
13704;SDS011;6924;52.122;9.952;2022-09-25T08:41:51;6.37;;;4.87;;
13704;SDS011;6924;52.122;9.952;2022-09-25T08:44:20;5.30;;;4.80;;
13704;SDS011;6924;52.122;9.952;2022-09-25T08:46:51;6.90;;;5.40;;
13704;SDS011;6924;52.122;9.952;2022-09-25T08:49:40;6.40;;;5.83;;
13704;SDS011;6924;52.122;9.952;2022-09-25T08:52:11;11.90;;;10.90;;
13704;SDS011;6924;52.122;9.952;2022-09-25T08:54:42;7.37;;;6.67;;
13704;SDS011;6924;52.122;9.952;2022-09-25T08:57:13;6.00;;;5.50;;
13704;SDS011;6924;52.122;9.952;2022-09-25T08:59:47;6.13;;;4.83;;
13704;SDS011;6924;52.122;9.952;2022-09-25T09:02:21;5.57;;;5.07;;
13704;SDS011;6924;52.122;9.952;2022-09-25T09:04:53;5.87;;;5.37;;
13704;SDS011;6924;52.122;9.952;2022-09-25T09:07:23;6.83;;;6.13;;
13704;SDS011;6924;52.122;9.952;2022-09-25T09:09:51;6.50;;;5.83;;
13704;SDS011;6924;52.122;9.952;2022-09-25T09:12:24;6.27;;;5.67;;
13704;SDS011;6924;52.122;9.952;2022-09-25T09:15:03;8.33;;;6.30;;
13704;SDS011;6924;52.122;9.952;2022-09-25T09:17:40;8.40;;;5.40;;
13704;SDS011;6924;52.122;9.952;2022-09-25T09:20:12;6.07;;;5.50;;
13704;SDS011;6924;52.122;9.952;2022-09-25T09:22:44;7.53;;;6.93;;
13704;SDS011;6924;52.122;9.952;2022-09-25T09:25:16;7.17;;;6.43;;
13704;SDS011;6924;52.122;9.952;2022-09-25T09:27:55;6.33;;;5.80;;
13704;SDS011;6924;52.122;9.952;2022-09-25T09:30:43;6.73;;;6.13;;
13704;SDS011;6924;52.122;9.952;2022-09-25T09:33:17;7.10;;;5.70;;
13704;SDS011;6924;52.122;9.952;2022-09-25T09:35:57;7.17;;;5.57;;
13704;SDS011;6924;52.122;9.952;2022-09-25T09:38:33;6.33;;;5.43;;
13704;SDS011;6924;52.122;9.952;2022-09-25T09:41:14;5.60;;;5.10;;
13704;SDS011;6924;52.122;9.952;2022-09-25T09:43:51;7.37;;;4.90;;
13704;SDS011;6924;52.122;9.952;2022-09-25T09:46:27;6.83;;;4.73;;
13704;SDS011;6924;52.122;9.952;2022-09-25T09:49:07;5.40;;;4.73;;
13704;SDS011;6924;52.122;9.952;2022-09-25T09:51:39;5.93;;;4.37;;
13704;SDS011;6924;52.122;9.952;2022-09-25T09:54:10;5.77;;;3.77;;
13704;SDS011;6924;52.122;9.952;2022-09-25T09:56:41;6.80;;;5.17;;
13704;SDS011;6924;52.122;9.952;2022-09-25T09:59:14;5.53;;;4.97;;
13704;SDS011;6924;52.122;9.952;2022-09-25T10:01:44;5.03;;;4.30;;
13704;SDS011;6924;52.122;9.952;2022-09-25T10:04:19;4.63;;;4.23;;
13704;SDS011;6924;52.122;9.952;2022-09-25T10:06:51;4.03;;;3.50;;
13704;SDS011;6924;52.122;9.952;2022-09-25T10:09:20;4.27;;;3.87;;
13704;SDS011;6924;52.122;9.952;2022-09-25T10:11:52;6.67;;;4.07;;
13704;SDS011;6924;52.122;9.952;2022-09-25T10:14:28;6.13;;;3.53;;
13704;SDS011;6924;52.122;9.952;2022-09-25T10:16:58;4.17;;;3.77;;
13704;SDS011;6924;52.122;9.952;2022-09-25T10:19:25;5.90;;;3.53;;
13704;SDS011;6924;52.122;9.952;2022-09-25T10:21:57;6.53;;;4.70;;
13704;SDS011;6924;52.122;9.952;2022-09-25T10:24:44;4.50;;;3.63;;
13704;SDS011;6924;52.122;9.952;2022-09-25T10:27:20;4.27;;;3.13;;
13704;SDS011;6924;52.122;9.952;2022-09-25T10:30:02;3.43;;;3.13;;
13704;SDS011;6924;52.122;9.952;2022-09-25T10:32:31;3.10;;;2.70;;
13704;SDS011;6924;52.122;9.952;2022-09-25T10:34:59;3.33;;;3.03;;
13704;SDS011;6924;52.122;9.952;2022-09-25T10:37:28;3.37;;;3.10;;
13704;SDS011;6924;52.122;9.952;2022-09-25T10:40:34;3.60;;;3.00;;
13704;SDS011;6924;52.122;9.952;2022-09-25T10:43:14;4.13;;;3.20;;
13704;SDS011;6924;52.122;9.952;2022-09-25T10:45:45;3.37;;;3.03;;
13704;SDS011;6924;52.122;9.952;2022-09-25T10:48:26;6.37;;;3.70;;
13704;SDS011;6924;52.122;9.952;2022-09-25T10:51:13;6.13;;;3.47;;
13704;SDS011;6924;52.122;9.952;2022-09-25T10:53:42;6.47;;;3.53;;
13704;SDS011;6924;52.122;9.952;2022-09-25T10:56:10;4.13;;;3.47;;
13704;SDS011;6924;52.122;9.952;2022-09-25T10:58:40;3.37;;;3.13;;
13704;SDS011;6924;52.122;9.952;2022-09-25T11:01:10;8.33;;;3.60;;
13704;SDS011;6924;52.122;9.952;2022-09-25T11:03:39;4.20;;;3.17;;
13704;SDS011;6924;52.122;9.952;2022-09-25T11:06:15;3.23;;;2.77;;
13704;SDS011;6924;52.122;9.952;2022-09-25T11:08:44;3.53;;;3.20;;
13704;SDS011;6924;52.122;9.952;2022-09-25T11:11:13;4.37;;;3.27;;
13704;SDS011;6924;52.122;9.952;2022-09-25T11:13:47;4.30;;;3.90;;
13704;SDS011;6924;52.122;9.952;2022-09-25T11:16:19;3.73;;;3.43;;
13704;SDS011;6924;52.122;9.952;2022-09-25T11:18:47;3.80;;;3.50;;
13704;SDS011;6924;52.122;9.952;2022-09-25T11:21:17;3.17;;;2.83;;
13704;SDS011;6924;52.122;9.952;2022-09-25T11:23:51;3.53;;;3.20;;
13704;SDS011;6924;52.122;9.952;2022-09-25T11:26:29;3.83;;;3.53;;
13704;SDS011;6924;52.122;9.952;2022-09-25T11:29:02;4.20;;;3.70;;
13704;SDS011;6924;52.122;9.952;2022-09-25T11:31:36;5.17;;;4.20;;
13704;SDS011;6924;52.122;9.952;2022-09-25T11:34:08;5.20;;;4.83;;
13704;SDS011;6924;52.122;9.952;2022-09-25T11:36:43;4.87;;;4.33;;
13704;SDS011;6924;52.122;9.952;2022-09-25T11:39:14;4.03;;;3.73;;
13704;SDS011;6924;52.122;9.952;2022-09-25T11:42:07;4.70;;;4.30;;
13704;SDS011;6924;52.122;9.952;2022-09-25T11:44:41;4.23;;;3.93;;
13704;SDS011;6924;52.122;9.952;2022-09-25T11:47:20;3.80;;;3.50;;
13704;SDS011;6924;52.122;9.952;2022-09-25T11:49:52;3.67;;;3.37;;
13704;SDS011;6924;52.122;9.952;2022-09-25T11:55:20;3.03;;;2.83;;
13704;SDS011;6924;52.122;9.952;2022-09-25T11:58:23;3.47;;;3.27;;
13704;SDS011;6924;52.122;9.952;2022-09-25T12:00:59;2.97;;;2.47;;
13704;SDS011;6924;52.122;9.952;2022-09-25T12:03:43;3.20;;;2.90;;
13704;SDS011;6924;52.122;9.952;2022-09-25T12:06:25;2.43;;;2.33;;
13704;SDS011;6924;52.122;9.952;2022-09-25T12:09:10;2.80;;;2.60;;
13704;SDS011;6924;52.122;9.952;2022-09-25T12:11:45;3.17;;;2.87;;
13704;SDS011;6924;52.122;9.952;2022-09-25T12:14:19;2.43;;;2.23;;
13704;SDS011;6924;52.122;9.952;2022-09-25T12:16:53;3.87;;;2.70;;
13704;SDS011;6924;52.122;9.952;2022-09-25T12:19:29;3.10;;;2.80;;
13704;SDS011;6924;52.122;9.952;2022-09-25T12:22:04;3.20;;;2.90;;
13704;SDS011;6924;52.122;9.952;2022-09-25T12:24:43;4.27;;;2.67;;
13704;SDS011;6924;52.122;9.952;2022-09-25T12:27:18;2.80;;;2.60;;
13704;SDS011;6924;52.122;9.952;2022-09-25T12:30:03;1.80;;;1.63;;
13704;SDS011;6924;52.122;9.952;2022-09-25T12:32:41;2.40;;;2.20;;
13704;SDS011;6924;52.122;9.952;2022-09-25T12:35:21;2.80;;;2.60;;
13704;SDS011;6924;52.122;9.952;2022-09-25T12:37:55;2.93;;;2.40;;
13704;SDS011;6924;52.122;9.952;2022-09-25T12:40:27;2.00;;;1.90;;
13704;SDS011;6924;52.122;9.952;2022-09-25T12:43:03;2.23;;;2.07;;
13704;SDS011;6924;52.122;9.952;2022-09-25T12:45:36;2.13;;;1.63;;
13704;SDS011;6924;52.122;9.952;2022-09-25T12:48:08;2.23;;;2.13;;
13704;SDS011;6924;52.122;9.952;2022-09-25T12:50:41;2.27;;;1.80;;
13704;SDS011;6924;52.122;9.952;2022-09-25T12:53:17;3.23;;;1.93;;
13704;SDS011;6924;52.122;9.952;2022-09-25T12:55:51;2.00;;;1.83;;
13704;SDS011;6924;52.122;9.952;2022-09-25T12:58:25;1.60;;;1.50;;
13704;SDS011;6924;52.122;9.952;2022-09-25T13:01:05;3.67;;;2.20;;
13704;SDS011;6924;52.122;9.952;2022-09-25T13:03:40;2.40;;;1.50;;
13704;SDS011;6924;52.122;9.952;2022-09-25T13:06:15;2.07;;;1.57;;
13704;SDS011;6924;52.122;9.952;2022-09-25T13:08:47;2.13;;;1.47;;
13704;SDS011;6924;52.122;9.952;2022-09-25T13:11:22;1.37;;;1.27;;
13704;SDS011;6924;52.122;9.952;2022-09-25T13:13:58;1.50;;;1.10;;
13704;SDS011;6924;52.122;9.952;2022-09-25T13:16:27;1.23;;;1.00;;
13704;SDS011;6924;52.122;9.952;2022-09-25T13:19:08;3.73;;;2.00;;
13704;SDS011;6924;52.122;9.952;2022-09-25T13:21:37;2.20;;;1.20;;
13704;SDS011;6924;52.122;9.952;2022-09-25T13:24:08;1.17;;;1.07;;
13704;SDS011;6924;52.122;9.952;2022-09-25T13:26:41;2.10;;;0.97;;
13704;SDS011;6924;52.122;9.952;2022-09-25T13:29:13;0.83;;;0.80;;
13704;SDS011;6924;52.122;9.952;2022-09-25T13:31:47;1.70;;;1.33;;
13704;SDS011;6924;52.122;9.952;2022-09-25T13:34:14;0.60;;;0.60;;
13704;SDS011;6924;52.122;9.952;2022-09-25T13:36:46;1.40;;;1.00;;
13704;SDS011;6924;52.122;9.952;2022-09-25T13:39:16;0.80;;;0.80;;
13704;SDS011;6924;52.122;9.952;2022-09-25T13:42:04;2.33;;;0.67;;
13704;SDS011;6924;52.122;9.952;2022-09-25T13:44:37;1.40;;;1.10;;
13704;SDS011;6924;52.122;9.952;2022-09-25T13:50:16;2.90;;;1.00;;
13704;SDS011;6924;52.122;9.952;2022-09-25T13:53:00;1.93;;;1.07;;
13704;SDS011;6924;52.122;9.952;2022-09-25T13:56:04;1.47;;;1.10;;
13704;SDS011;6924;52.122;9.952;2022-09-25T13:58:58;1.20;;;1.10;;
13704;SDS011;6924;52.122;9.952;2022-09-25T14:01:49;1.33;;;1.23;;
13704;SDS011;6924;52.122;9.952;2022-09-25T14:04:26;1.73;;;1.50;;
13704;SDS011;6924;52.122;9.952;2022-09-25T14:07:01;1.90;;;0.90;;
13704;SDS011;6924;52.122;9.952;2022-09-25T14:09:41;1.20;;;1.00;;
13704;SDS011;6924;52.122;9.952;2022-09-25T14:12:13;1.17;;;1.00;;
13704;SDS011;6924;52.122;9.952;2022-09-25T14:14:48;1.90;;;1.10;;
13704;SDS011;6924;52.122;9.952;2022-09-25T14:17:21;3.17;;;1.10;;
13704;SDS011;6924;52.122;9.952;2022-09-25T14:19:50;1.33;;;0.80;;
13704;SDS011;6924;52.122;9.952;2022-09-25T14:22:19;2.20;;;0.97;;
13704;SDS011;6924;52.122;9.952;2022-09-25T14:24:53;1.10;;;1.10;;
13704;SDS011;6924;52.122;9.952;2022-09-25T14:27:21;1.17;;;1.07;;
13704;SDS011;6924;52.122;9.952;2022-09-25T14:29:50;1.20;;;1.10;;
13704;SDS011;6924;52.122;9.952;2022-09-25T14:32:20;1.73;;;1.13;;
13704;SDS011;6924;52.122;9.952;2022-09-25T14:35:02;1.57;;;0.87;;
13704;SDS011;6924;52.122;9.952;2022-09-25T14:37:48;1.10;;;1.10;;
13704;SDS011;6924;52.122;9.952;2022-09-25T14:40:26;2.10;;;1.33;;
13704;SDS011;6924;52.122;9.952;2022-09-25T14:43:00;0.93;;;0.90;;
13704;SDS011;6924;52.122;9.952;2022-09-25T14:46:00;1.50;;;0.80;;
13704;SDS011;6924;52.122;9.952;2022-09-25T14:48:31;2.23;;;1.20;;
13704;SDS011;6924;52.122;9.952;2022-09-25T14:51:03;1.00;;;0.70;;
13704;SDS011;6924;52.122;9.952;2022-09-25T14:53:33;0.90;;;0.80;;
13704;SDS011;6924;52.122;9.952;2022-09-25T14:56:04;1.17;;;1.07;;
13704;SDS011;6924;52.122;9.952;2022-09-25T14:58:39;0.77;;;0.60;;
13704;SDS011;6924;52.122;9.952;2022-09-25T15:01:11;2.47;;;0.97;;
13704;SDS011;6924;52.122;9.952;2022-09-25T15:03:43;1.63;;;0.70;;
13704;SDS011;6924;52.122;9.952;2022-09-25T15:06:21;1.00;;;0.80;;
13704;SDS011;6924;52.122;9.952;2022-09-25T15:08:49;0.57;;;0.47;;
13704;SDS011;6924;52.122;9.952;2022-09-25T15:11:18;0.93;;;0.53;;
13704;SDS011;6924;52.122;9.952;2022-09-25T15:13:45;0.60;;;0.60;;
13704;SDS011;6924;52.122;9.952;2022-09-25T15:16:12;0.57;;;0.53;;
13704;SDS011;6924;52.122;9.952;2022-09-25T15:18:59;0.53;;;0.43;;
13704;SDS011;6924;52.122;9.952;2022-09-25T15:21:28;0.70;;;0.60;;
13704;SDS011;6924;52.122;9.952;2022-09-25T15:23:56;1.10;;;0.50;;